Time;durP1;ratioP1;P1;durP2;ratioP2;P2;SDS_P1;SDS_P2;PMS_P1;PMS_P2;Temp;Humidity;BMP_temperature;BMP_pressure;BME280_temperature;BME280_humidity;BME280_pressure;Samples;Min_cycle;Max_cycle;Signal;HPM_P1;HPM_P2
2022/10/01 00:01:52;;;;;;;;;1.00;1.00;;;;;;;;5086688;28;62071;-79
2022/10/01 00:04:18;;;;;;;;;2.00;1.00;;;;;;;;5085417;27;62067;-78
2022/10/01 00:06:43;;;;;;;;;2.00;0.00;;;;;;;;5086096;28;61807;-78
2022/10/01 00:09:08;;;;;;;;;1.00;1.00;;;;;;;;5087375;28;61831;-79
2022/10/01 00:11:33;;;;;;;;;1.00;1.00;;;;;;;;5089361;28;61679;-79
2022/10/01 00:14:00;;;;;;;;;2.50;1.00;;;;;;;;5086306;28;62024;-79
2022/10/01 00:16:26;;;;;;;;;1.00;1.00;;;;;;;;5087690;27;61949;-79
2022/10/01 00:18:52;;;;;;;;;1.00;1.00;;;;;;;;5085055;28;63606;-79
2022/10/01 00:21:24;;;;;;;;;1.00;1.00;;;;;;;;5085171;28;61726;-79
2022/10/01 00:23:54;;;;;;;;;4.50;1.00;;;;;;;;5084362;28;61840;-79
2022/10/01 00:26:20;;;;;;;;;1.00;1.00;;;;;;;;5086756;28;62027;-79
2022/10/01 00:28:47;;;;;;;;;2.75;1.75;;;;;;;;5084408;28;64896;-79
2022/10/01 00:31:13;;;;;;;;;1.00;1.00;;;;;;;;5084016;28;61880;-79
2022/10/01 00:33:38;;;;;;;;;1.00;1.00;;;;;;;;5084848;28;61634;-79
2022/10/01 00:36:04;;;;;;;;;0.50;0.00;;;;;;;;5084407;28;61834;-79
2022/10/01 00:38:30;;;;;;;;;0.50;0.50;;;;;;;;5082476;28;63989;-80
2022/10/01 00:40:55;;;;;;;;;4.25;1.75;;;;;;;;5083965;28;61871;-81
2022/10/01 00:43:27;;;;;;;;;1.00;1.00;;;;;;;;5083532;28;61936;-79
2022/10/01 00:45:54;;;;;;;;;1.00;1.00;;;;;;;;5085998;28;61903;-79
2022/10/01 00:48:20;;;;;;;;;1.25;1.25;;;;;;;;5085435;28;61865;-81
2022/10/01 00:50:48;;;;;;;;;0.00;0.00;;;;;;;;5085101;28;61738;-80
2022/10/01 00:53:13;;;;;;;;;0.25;0.25;;;;;;;;5085566;28;62062;-78
2022/10/01 00:55:40;;;;;;;;;0.50;0.50;;;;;;;;5083045;28;61853;-78
2022/10/01 00:58:07;;;;;;;;;1.00;1.00;;;;;;;;5085774;27;62042;-80
2022/10/01 01:00:34;;;;;;;;;2.00;1.00;;;;;;;;5085529;27;61741;-79
2022/10/01 01:02:59;;;;;;;;;0.00;0.00;;;;;;;;5085405;28;61740;-79
2022/10/01 01:05:24;;;;;;;;;1.00;1.00;;;;;;;;5084524;28;61737;-80
2022/10/01 01:07:51;;;;;;;;;0.50;0.50;;;;;;;;5081561;28;64813;-79
2022/10/01 01:10:18;;;;;;;;;6.00;3.00;;;;;;;;5081841;28;61793;-78
2022/10/01 01:12:52;;;;;;;;;2.75;1.50;;;;;;;;5083354;28;61778;-78
2022/10/01 01:15:35;;;;;;;;;3.00;1.00;;;;;;;;5083626;28;61967;-79
2022/10/01 01:18:10;;;;;;;;;0.75;0.75;;;;;;;;5083066;28;62818;-79
2022/10/01 01:20:47;;;;;;;;;2.00;1.00;;;;;;;;5083284;28;61770;-79
2022/10/01 01:23:15;;;;;;;;;2.00;2.00;;;;;;;;5083199;28;61823;-78
2022/10/01 01:25:46;;;;;;;;;1.00;1.00;;;;;;;;5084984;28;61885;-78
2022/10/01 01:28:17;;;;;;;;;1.25;1.00;;;;;;;;5081147;28;64060;-78
2022/10/01 01:30:43;;;;;;;;;0.00;0.00;;;;;;;;5083250;28;61911;-79
2022/10/01 01:33:16;;;;;;;;;1.00;1.00;;;;;;;;5083664;28;61677;-80
2022/10/01 01:35:51;;;;;;;;;0.00;0.00;;;;;;;;5083410;28;61967;-78
2022/10/01 01:38:20;;;;;;;;;1.00;1.00;;;;;;;;5082705;28;62843;-79
2022/10/01 01:40:50;;;;;;;;;1.00;1.00;;;;;;;;5081655;28;61965;-78
2022/10/01 01:43:19;;;;;;;;;1.00;1.00;;;;;;;;5084807;28;61708;-78
2022/10/01 01:45:46;;;;;;;;;0.75;0.75;;;;;;;;5087217;28;61706;-78
2022/10/01 01:48:12;;;;;;;;;1.00;0.00;;;;;;;;5083512;28;65034;-79
2022/10/01 01:50:43;;;;;;;;;0.00;0.00;;;;;;;;5085746;28;61935;-78
2022/10/01 01:53:08;;;;;;;;;0.00;0.00;;;;;;;;5083660;28;61886;-77
2022/10/01 01:55:35;;;;;;;;;0.00;0.00;;;;;;;;5084175;28;62048;-78
2022/10/01 01:58:01;;;;;;;;;0.00;0.00;;;;;;;;5083659;27;62156;-78
2022/10/01 02:00:26;;;;;;;;;0.00;0.00;;;;;;;;5082720;28;61772;-78
2022/10/01 02:02:52;;;;;;;;;0.00;0.00;;;;;;;;5084597;28;61839;-78
2022/10/01 02:05:22;;;;;;;;;0.75;0.00;;;;;;;;5085378;28;61775;-78
2022/10/01 02:07:51;;;;;;;;;0.00;0.00;;;;;;;;5081532;28;64225;-78
2022/10/01 02:10:22;;;;;;;;;1.00;0.00;;;;;;;;5083756;28;62071;-78
2022/10/01 02:13:02;;;;;;;;;0.00;0.00;;;;;;;;5084058;27;61773;-78
2022/10/01 02:15:27;;;;;;;;;0.50;0.00;;;;;;;;5085810;28;62161;-79
2022/10/01 02:17:58;;;;;;;;;0.00;0.00;;;;;;;;5085613;28;61957;-78
2022/10/01 02:20:45;;;;;;;;;0.00;0.00;;;;;;;;5085273;28;61733;-79
2022/10/01 02:23:12;;;;;;;;;0.00;0.00;;;;;;;;5085997;28;61739;-78
2022/10/01 02:25:41;;;;;;;;;0.00;0.00;;;;;;;;5085623;28;61714;-79
2022/10/01 02:28:08;;;;;;;;;0.00;0.00;;;;;;;;5084500;28;63746;-79
2022/10/01 02:30:34;;;;;;;;;0.00;0.00;;;;;;;;5087053;28;61906;-79
2022/10/01 02:33:01;;;;;;;;;0.00;0.00;;;;;;;;5086376;28;61673;-78
2022/10/01 02:35:29;;;;;;;;;0.00;0.00;;;;;;;;5086335;28;62205;-79
2022/10/01 02:37:55;;;;;;;;;0.00;0.00;;;;;;;;5085082;28;63795;-79
2022/10/01 02:40:25;;;;;;;;;0.00;0.00;;;;;;;;5087168;27;61697;-79
2022/10/01 02:42:51;;;;;;;;;0.00;0.00;;;;;;;;5086691;27;61219;-79
2022/10/01 02:45:21;;;;;;;;;0.00;0.00;;;;;;;;5084795;28;61726;-80
2022/10/01 02:47:49;;;;;;;;;0.00;0.00;;;;;;;;5086027;27;62138;-78
2022/10/01 02:50:14;;;;;;;;;0.00;0.00;;;;;;;;5087005;28;62035;-79
2022/10/01 02:52:52;;;;;;;;;1.00;0.00;;;;;;;;5086725;27;61790;-78
2022/10/01 02:55:44;;;;;;;;;0.00;0.00;;;;;;;;5088395;28;61807;-78
2022/10/01 02:58:10;;;;;;;;;0.00;0.00;;;;;;;;5085480;27;64054;-78
2022/10/01 03:00:35;;;;;;;;;0.00;0.00;;;;;;;;5086053;28;62070;-78
2022/10/01 03:03:01;;;;;;;;;0.00;0.00;;;;;;;;5085622;28;61883;-78
2022/10/01 03:05:26;;;;;;;;;0.00;0.00;;;;;;;;5086024;28;61844;-78
2022/10/01 03:07:51;;;;;;;;;0.00;0.00;;;;;;;;5086028;28;61884;-80
2022/10/01 03:10:17;;;;;;;;;0.00;0.00;;;;;;;;5086458;28;61769;-79
2022/10/01 03:12:44;;;;;;;;;1.25;0.00;;;;;;;;5084503;28;61964;-79
2022/10/01 03:15:10;;;;;;;;;0.00;0.00;;;;;;;;5086547;28;61828;-79
2022/10/01 03:17:36;;;;;;;;;0.00;0.00;;;;;;;;5084633;28;63965;-79
2022/10/01 03:20:01;;;;;;;;;0.00;0.00;;;;;;;;5087145;28;61955;-79
2022/10/01 03:22:26;;;;;;;;;0.00;0.00;;;;;;;;5090286;28;61894;-78
2022/10/01 03:24:52;;;;;;;;;0.00;0.00;;;;;;;;5086494;28;61907;-79
2022/10/01 03:27:18;;;;;;;;;0.00;0.00;;;;;;;;5083345;28;64768;-78
2022/10/01 03:29:43;;;;;;;;;0.00;0.00;;;;;;;;5085147;28;61767;-80
2022/10/01 03:32:08;;;;;;;;;1.00;0.00;;;;;;;;5085197;28;61729;-78
2022/10/01 03:34:34;;;;;;;;;0.25;0.00;;;;;;;;5085428;27;61850;-78
2022/10/01 03:36:59;;;;;;;;;0.00;0.00;;;;;;;;5084322;28;61710;-79
2022/10/01 03:39:24;;;;;;;;;0.00;0.00;;;;;;;;5085522;28;61910;-78
2022/10/01 03:41:50;;;;;;;;;0.00;0.00;;;;;;;;5085913;28;62114;-78
2022/10/01 03:44:15;;;;;;;;;0.00;0.00;;;;;;;;5085481;28;62055;-78
2022/10/01 03:46:40;;;;;;;;;0.00;0.00;;;;;;;;5082844;28;63529;-78
2022/10/01 03:49:05;;;;;;;;;0.25;0.00;;;;;;;;5084713;28;61877;-79
2022/10/01 03:51:31;;;;;;;;;1.00;0.00;;;;;;;;5082921;28;62194;-79
2022/10/01 03:53:57;;;;;;;;;0.00;0.00;;;;;;;;5084901;28;62474;-78
2022/10/01 03:56:22;;;;;;;;;0.00;0.00;;;;;;;;5084785;28;63124;-79
2022/10/01 03:58:48;;;;;;;;;0.00;0.00;;;;;;;;5083851;28;61961;-78
2022/10/01 04:01:13;;;;;;;;;0.00;0.00;;;;;;;;5084532;28;61782;-78
2022/10/01 04:03:39;;;;;;;;;0.00;0.00;;;;;;;;5085595;28;61746;-79
2022/10/01 04:06:04;;;;;;;;;0.00;0.00;;;;;;;;5084854;28;61972;-79
2022/10/01 04:08:29;;;;;;;;;0.00;0.00;;;;;;;;5084569;28;61900;-79
2022/10/01 04:10:54;;;;;;;;;0.00;0.00;;;;;;;;5084738;28;61847;-79
2022/10/01 04:13:20;;;;;;;;;0.00;0.00;;;;;;;;5083958;28;62102;-80
2022/10/01 04:15:47;;;;;;;;;1.00;0.00;;;;;;;;5083634;28;61956;-78
2022/10/01 04:18:12;;;;;;;;;0.00;0.00;;;;;;;;5084099;28;61775;-78
2022/10/01 04:20:37;;;;;;;;;0.00;0.00;;;;;;;;5083393;28;61980;-79
2022/10/01 04:23:03;;;;;;;;;0.00;0.00;;;;;;;;5084807;28;61827;-78
2022/10/01 04:25:29;;;;;;;;;1.00;0.00;;;;;;;;5084872;28;61902;-80
2022/10/01 04:27:56;;;;;;;;;0.00;0.00;;;;;;;;5084950;28;62383;-80
2022/10/01 04:30:21;;;;;;;;;0.00;0.00;;;;;;;;5083548;27;61985;-79
2022/10/01 04:32:46;;;;;;;;;0.00;0.00;;;;;;;;5083742;28;62125;-79
2022/10/01 04:35:12;;;;;;;;;0.00;0.00;;;;;;;;5083807;28;61922;-78
2022/10/01 04:37:37;;;;;;;;;0.00;0.00;;;;;;;;5083715;27;62151;-78
2022/10/01 04:40:03;;;;;;;;;0.00;0.00;;;;;;;;5083962;28;61948;-79
2022/10/01 04:42:28;;;;;;;;;0.00;0.00;;;;;;;;5084998;28;62134;-79
2022/10/01 04:44:53;;;;;;;;;0.00;0.00;;;;;;;;5083662;28;63592;-78
2022/10/01 04:47:19;;;;;;;;;1.00;0.00;;;;;;;;5085717;28;61781;-78
2022/10/01 04:49:44;;;;;;;;;0.00;0.00;;;;;;;;5083481;28;62058;-78
2022/10/01 04:52:09;;;;;;;;;0.00;0.00;;;;;;;;5085213;28;61695;-78
2022/10/01 04:54:34;;;;;;;;;0.00;0.00;;;;;;;;5083031;28;63576;-78
2022/10/01 04:57:00;;;;;;;;;0.00;0.00;;;;;;;;5083333;28;62220;-78
2022/10/01 04:59:25;;;;;;;;;0.00;0.00;;;;;;;;5082886;28;61943;-78
2022/10/01 05:01:51;;;;;;;;;0.00;0.00;;;;;;;;5082552;28;61855;-79
2022/10/01 05:04:16;;;;;;;;;0.00;0.00;;;;;;;;5078973;28;63772;-78
2022/10/01 05:06:41;;;;;;;;;0.00;0.00;;;;;;;;5082949;28;61790;-79
2022/10/01 05:09:06;;;;;;;;;0.00;0.00;;;;;;;;5084382;28;61699;-79
2022/10/01 05:11:33;;;;;;;;;0.00;0.00;;;;;;;;5084999;28;61905;-78
2022/10/01 05:13:58;;;;;;;;;1.00;0.00;;;;;;;;5082911;28;63751;-79
2022/10/01 05:16:24;;;;;;;;;0.00;0.00;;;;;;;;5083573;28;62050;-78
2022/10/01 05:18:51;;;;;;;;;0.25;0.00;;;;;;;;5085109;28;61866;-78
2022/10/01 05:21:20;;;;;;;;;0.00;0.00;;;;;;;;5085022;28;61862;-78
2022/10/01 05:23:46;;;;;;;;;0.00;0.00;;;;;;;;5082458;28;64222;-78
2022/10/01 05:26:11;;;;;;;;;0.00;0.00;;;;;;;;5083018;28;62388;-78
2022/10/01 05:28:43;;;;;;;;;0.00;0.00;;;;;;;;5084810;28;61844;-79
2022/10/01 05:31:08;;;;;;;;;0.50;0.00;;;;;;;;5084268;28;62144;-78
2022/10/01 05:33:34;;;;;;;;;0.00;0.00;;;;;;;;5083943;28;62922;-79
2022/10/01 05:35:59;;;;;;;;;0.00;0.00;;;;;;;;5084202;28;61767;-78
2022/10/01 05:38:25;;;;;;;;;0.00;0.00;;;;;;;;5084581;28;61996;-79
2022/10/01 05:40:50;;;;;;;;;0.00;0.00;;;;;;;;5084466;27;61739;-78
2022/10/01 05:43:17;;;;;;;;;1.00;0.00;;;;;;;;5082091;28;63841;-79
2022/10/01 05:45:43;;;;;;;;;0.00;0.00;;;;;;;;5084876;28;61679;-78
2022/10/01 05:48:08;;;;;;;;;0.75;0.00;;;;;;;;5083976;28;62179;-79
2022/10/01 05:50:35;;;;;;;;;3.50;3.50;;;;;;;;5084391;28;61976;-78
2022/10/01 05:53:01;;;;;;;;;0.00;0.00;;;;;;;;5082044;28;63674;-78
2022/10/01 05:55:30;;;;;;;;;4.75;0.50;;;;;;;;5084476;28;61941;-79
2022/10/01 05:57:57;;;;;;;;;0.00;0.00;;;;;;;;5082858;28;61768;-79
2022/10/01 06:00:22;;;;;;;;;0.50;0.00;;;;;;;;5084557;28;61294;-79
2022/10/01 06:02:51;;;;;;;;;2.00;0.75;;;;;;;;5082911;28;61793;-78
2022/10/01 06:05:17;;;;;;;;;1.50;0.25;;;;;;;;5083528;27;61698;-79
2022/10/01 06:07:42;;;;;;;;;0.00;0.00;;;;;;;;5082938;28;61942;-79
2022/10/01 06:10:08;;;;;;;;;0.50;0.00;;;;;;;;5082337;28;61863;-79
2022/10/01 06:12:33;;;;;;;;;0.00;0.00;;;;;;;;5083845;28;62349;-79
2022/10/01 06:14:58;;;;;;;;;0.00;0.00;;;;;;;;5083973;28;61939;-79
2022/10/01 06:17:24;;;;;;;;;1.00;0.00;;;;;;;;5084870;28;62003;-78
2022/10/01 06:19:50;;;;;;;;;1.00;0.00;;;;;;;;5084706;28;62092;-78
2022/10/01 06:22:15;;;;;;;;;0.00;0.00;;;;;;;;5083821;28;62094;-77
2022/10/01 06:24:41;;;;;;;;;0.00;0.00;;;;;;;;5082528;28;61887;-78
2022/10/01 06:27:06;;;;;;;;;0.50;0.00;;;;;;;;5083943;28;61695;-78
2022/10/01 06:29:31;;;;;;;;;0.00;0.00;;;;;;;;5082171;28;61804;-78
2022/10/01 06:31:57;;;;;;;;;0.00;0.00;;;;;;;;5082192;28;63775;-78
2022/10/01 06:34:22;;;;;;;;;0.00;0.00;;;;;;;;5081567;28;61911;-80
2022/10/01 06:36:47;;;;;;;;;0.00;0.00;;;;;;;;5080728;28;62210;-79
2022/10/01 06:39:13;;;;;;;;;0.00;0.00;;;;;;;;5082486;28;61758;-80
2022/10/01 06:41:39;;;;;;;;;0.75;0.00;;;;;;;;5081754;28;61996;-81
2022/10/01 06:44:05;;;;;;;;;2.75;0.00;;;;;;;;5080941;28;61767;-83
2022/10/01 06:46:31;;;;;;;;;0.50;0.00;;;;;;;;5080571;28;61728;-82
2022/10/01 06:48:56;;;;;;;;;0.00;0.00;;;;;;;;5082430;28;61976;-82
2022/10/01 06:52:47;;;;;;;;;0.00;0.00;;;;;;;;5079779;28;64982;-81
2022/10/01 06:54:07;;;;;;;;;1.00;0.00;;;;;;;;5082524;28;62190;-82
2022/10/01 06:56:33;;;;;;;;;0.25;0.25;;;;;;;;5083986;28;62064;-82
2022/10/01 06:58:58;;;;;;;;;0.00;0.00;;;;;;;;5085727;28;61813;-82
2022/10/01 07:01:24;;;;;;;;;0.00;0.00;;;;;;;;5082975;28;63740;-82
2022/10/01 07:03:51;;;;;;;;;1.50;0.00;;;;;;;;5083861;28;62138;-81
2022/10/01 07:06:16;;;;;;;;;1.50;0.00;;;;;;;;5083875;28;61984;-82
2022/10/01 07:08:42;;;;;;;;;0.50;0.00;;;;;;;;5083860;28;62040;-83
2022/10/01 07:11:07;;;;;;;;;2.25;0.50;;;;;;;;5083241;28;64221;-82
2022/10/01 07:13:33;;;;;;;;;2.00;0.25;;;;;;;;5083726;28;61982;-84
2022/10/01 07:15:58;;;;;;;;;1.00;1.00;;;;;;;;5083087;28;61849;-81
2022/10/01 07:18:23;;;;;;;;;3.00;1.50;;;;;;;;5083325;28;62241;-81
2022/10/01 07:20:48;;;;;;;;;2.50;1.00;;;;;;;;5083744;28;61826;-81
2022/10/01 07:23:14;;;;;;;;;2.00;0.00;;;;;;;;5082795;28;61819;-81
2022/10/01 07:25:40;;;;;;;;;2.25;1.00;;;;;;;;5083712;28;61789;-81
2022/10/01 07:28:06;;;;;;;;;4.00;0.00;;;;;;;;5086793;27;61848;-80
2022/10/01 07:30:32;;;;;;;;;0.50;0.00;;;;;;;;5083501;28;65121;-81
2022/10/01 07:32:58;;;;;;;;;1.00;1.00;;;;;;;;5086050;28;61895;-81
2022/10/01 07:35:23;;;;;;;;;3.00;1.00;;;;;;;;5084481;28;61976;-82
2022/10/01 07:37:49;;;;;;;;;1.00;1.00;;;;;;;;5083445;27;61918;-85
2022/10/01 07:40:17;;;;;;;;;1.50;0.50;;;;;;;;5082738;28;64056;-87
2022/10/01 07:42:43;;;;;;;;;1.00;1.00;;;;;;;;5083392;28;61691;-85
2022/10/01 07:45:08;;;;;;;;;1.50;1.00;;;;;;;;5083191;28;61724;-86
2022/10/01 07:47:34;;;;;;;;;1.00;1.00;;;;;;;;5085149;27;61830;-83
2022/10/01 07:49:59;;;;;;;;;2.00;0.75;;;;;;;;5086881;27;61748;-83
2022/10/01 07:52:24;;;;;;;;;0.75;0.75;;;;;;;;5085322;28;61841;-83
2022/10/01 07:54:50;;;;;;;;;1.00;1.00;;;;;;;;5084638;28;62663;-83
2022/10/01 07:57:15;;;;;;;;;0.00;0.00;;;;;;;;5085906;28;61675;-83
2022/10/01 07:59:40;;;;;;;;;2.50;1.00;;;;;;;;5085034;27;61886;-83
2022/10/01 08:02:23;;;;;;;;;1.00;0.00;;;;;;;;5085281;27;61695;-83
2022/10/01 08:07:34;;;;;;;;;0.00;0.00;;;;;;;;5084677;28;61778;-82
2022/10/01 08:10:00;;;;;;;;;2.00;1.00;;;;;;;;5084314;28;61761;-83
2022/10/01 08:12:27;;;;;;;;;0.25;0.25;;;;;;;;5084082;28;61709;-84
2022/10/01 08:14:52;;;;;;;;;0.00;0.00;;;;;;;;5084303;28;61826;-81
2022/10/01 08:17:18;;;;;;;;;1.00;1.00;;;;;;;;5083019;28;61955;-82
2022/10/01 08:19:43;;;;;;;;;0.00;0.00;;;;;;;;5083773;28;61933;-81
2022/10/01 08:22:09;;;;;;;;;1.00;1.00;;;;;;;;5082257;28;62239;-82
2022/10/01 08:24:35;;;;;;;;;0.00;0.00;;;;;;;;5083666;28;61837;-82
2022/10/01 08:27:00;;;;;;;;;4.00;1.00;;;;;;;;5082621;28;62280;-82
2022/10/01 08:29:25;;;;;;;;;4.25;1.00;;;;;;;;5083270;28;62027;-81
2022/10/01 08:31:51;;;;;;;;;2.00;0.25;;;;;;;;5083291;28;62759;-81
2022/10/01 08:34:16;;;;;;;;;1.00;1.00;;;;;;;;5083999;27;61781;-81
2022/10/01 08:36:42;;;;;;;;;3.00;0.75;;;;;;;;5081992;28;61730;-82
2022/10/01 08:39:07;;;;;;;;;1.25;1.00;;;;;;;;5083234;28;62080;-82
2022/10/01 08:41:45;;;;;;;;;1.25;1.00;;;;;;;;5083267;28;61929;-82
2022/10/01 08:44:31;;;;;;;;;2.50;0.00;;;;;;;;5083983;28;61712;-82
2022/10/01 08:46:59;;;;;;;;;1.00;0.00;;;;;;;;5080617;28;61866;-81
2022/10/01 08:49:37;;;;;;;;;1.00;0.00;;;;;;;;5081734;28;62250;-81
2022/10/01 08:52:13;;;;;;;;;1.00;1.00;;;;;;;;5079384;28;62067;-81
2022/10/01 08:54:45;;;;;;;;;2.25;1.25;;;;;;;;5080306;28;61881;-81
2022/10/01 08:57:12;;;;;;;;;1.50;0.00;;;;;;;;5082917;27;62043;-81
2022/10/01 08:59:45;;;;;;;;;3.50;1.00;;;;;;;;5080215;28;65020;-82
2022/10/01 09:02:17;;;;;;;;;0.00;0.00;;;;;;;;5081498;28;61979;-82
2022/10/01 09:04:43;;;;;;;;;6.50;1.00;;;;;;;;5081885;28;61954;-83
2022/10/01 09:07:31;;;;;;;;;1.00;1.00;;;;;;;;5083172;27;61830;-82
2022/10/01 09:10:05;;;;;;;;;0.00;0.00;;;;;;;;5080660;28;63574;-80
2022/10/01 09:12:40;;;;;;;;;1.00;1.00;;;;;;;;5083328;27;61865;-82
2022/10/01 09:15:31;;;;;;;;;1.25;0.75;;;;;;;;5083657;28;61918;-82
2022/10/01 09:18:15;;;;;;;;;1.75;0.75;;;;;;;;5081097;28;61920;-82
2022/10/01 09:20:42;;;;;;;;;4.50;0.00;;;;;;;;5081133;28;63830;-82
2022/10/01 09:23:27;;;;;;;;;0.00;0.00;;;;;;;;5082465;28;61992;-82
2022/10/01 09:25:53;;;;;;;;;3.25;0.50;;;;;;;;5083168;27;61837;-82
2022/10/01 09:28:22;;;;;;;;;1.25;1.25;;;;;;;;5082102;28;61865;-82
2022/10/01 09:31:00;;;;;;;;;3.00;0.00;;;;;;;;5082354;28;63169;-81
2022/10/01 09:33:31;;;;;;;;;2.00;1.00;;;;;;;;5081859;28;61910;-80
2022/10/01 09:36:16;;;;;;;;;2.50;1.00;;;;;;;;5081528;27;61857;-81
2022/10/01 09:38:42;;;;;;;;;4.00;1.00;;;;;;;;5081082;28;61972;-81
2022/10/01 09:41:09;;;;;;;;;2.00;1.50;;;;;;;;5080522;28;65067;-81
2022/10/01 09:43:36;;;;;;;;;2.25;0.50;;;;;;;;5082151;28;61698;-80
2022/10/01 09:46:05;;;;;;;;;3.00;1.67;;;;;;;;5082326;27;61750;-81
2022/10/01 09:48:41;;;;;;;;;1.00;1.00;;;;;;;;5082634;27;61723;-81
2022/10/01 09:51:12;;;;;;;;;2.50;2.00;;;;;;;;5078418;28;64895;-82
2022/10/01 09:53:53;;;;;;;;;1.67;1.00;;;;;;;;5078426;28;61871;-81
2022/10/01 09:56:23;;;;;;;;;1.00;1.00;;;;;;;;5081079;27;61698;-82
2022/10/01 09:58:51;;;;;;;;;2.00;0.67;;;;;;;;5081296;27;61720;-82
2022/10/01 10:01:23;;;;;;;;;4.00;1.50;;;;;;;;5080307;28;63768;-82
2022/10/01 10:03:52;;;;;;;;;6.25;1.00;;;;;;;;5082690;27;62070;-82
2022/10/01 10:06:22;;;;;;;;;2.00;0.67;;;;;;;;5082788;27;61850;-82
2022/10/01 10:08:48;;;;;;;;;4.25;0.00;;;;;;;;5081396;27;61967;-82
2022/10/01 10:11:19;;;;;;;;;0.50;0.00;;;;;;;;5081922;27;61985;-81
2022/10/01 10:13:49;;;;;;;;;2.25;1.00;;;;;;;;5082647;27;61790;-82
2022/10/01 10:16:19;;;;;;;;;7.50;3.25;;;;;;;;5080948;28;62218;-82
2022/10/01 10:18:47;;;;;;;;;2.00;1.00;;;;;;;;5081003;28;62209;-82
2022/10/01 10:21:15;;;;;;;;;2.50;1.00;;;;;;;;5086341;27;63693;-82
2022/10/01 10:23:48;;;;;;;;;4.50;2.00;;;;;;;;5097380;27;61888;-81
2022/10/01 10:26:41;;;;;;;;;2.50;2.00;;;;;;;;5079589;28;61962;-81
2022/10/01 10:29:12;;;;;;;;;0.67;0.67;;;;;;;;5078580;28;61951;-82
2022/10/01 10:31:40;;;;;;;;;2.67;0.00;;;;;;;;5080100;28;64622;-80
2022/10/01 10:34:15;;;;;;;;;3.67;0.67;;;;;;;;5082381;27;61727;-80
2022/10/01 10:36:41;;;;;;;;;6.33;2.67;;;;;;;;5081757;28;62056;-81
2022/10/01 10:39:16;;;;;;;;;2.00;0.67;;;;;;;;5081929;28;61972;-80
2022/10/01 10:41:43;;;;;;;;;1.00;0.50;;;;;;;;5079366;28;63603;-81
2022/10/01 10:44:12;;;;;;;;;2.00;2.00;;;;;;;;5081830;28;61891;-80
2022/10/01 10:46:38;;;;;;;;;1.00;1.00;;;;;;;;5082487;28;61903;-80
2022/10/01 10:49:29;;;;;;;;;1.00;1.00;;;;;;;;5082412;28;61924;-85
2022/10/01 10:51:56;;;;;;;;;1.67;1.67;;;;;;;;5073686;27;64580;-81
2022/10/01 10:54:29;;;;;;;;;4.00;2.75;;;;;;;;5080487;28;63130;-81
2022/10/01 10:57:02;;;;;;;;;1.33;1.33;;;;;;;;5082939;28;61841;-82
2022/10/01 10:59:32;;;;;;;;;2.00;1.00;;;;;;;;5081314;28;61882;-81
2022/10/01 11:02:04;;;;;;;;;1.00;0.67;;;;;;;;5080758;28;61825;-83
2022/10/01 11:04:38;;;;;;;;;1.00;1.00;;;;;;;;5081370;28;61797;-85
2022/10/01 11:07:03;;;;;;;;;2.25;1.75;;;;;;;;5083896;28;61852;-81
2022/10/01 11:09:42;;;;;;;;;3.00;2.00;;;;;;;;5083051;28;61884;-85
2022/10/01 11:12:15;;;;;;;;;3.33;1.33;;;;;;;;5082938;28;63775;-84
2022/10/01 11:14:58;;;;;;;;;5.00;1.67;;;;;;;;5084951;27;61846;-85
2022/10/01 11:17:49;;;;;;;;;8.75;4.00;;;;;;;;5083331;28;61810;-85
2022/10/01 11:20:15;;;;;;;;;2.75;1.25;;;;;;;;5079535;28;61799;-87
2022/10/01 11:22:40;;;;;;;;;6.00;4.75;;;;;;;;5082243;27;62782;-85
2022/10/01 11:25:14;;;;;;;;;6.33;6.00;;;;;;;;5083042;28;61722;-85
2022/10/01 11:28:03;;;;;;;;;13.50;10.50;;;;;;;;5084975;27;62104;-85
2022/10/01 11:30:31;;;;;;;;;2.33;0.00;;;;;;;;5021538;28;61922;-82
2022/10/01 11:33:12;;;;;;;;;11.00;3.50;;;;;;;;5027720;28;63838;-82
2022/10/01 11:35:41;;;;;;;;;1.00;0.00;;;;;;;;5028269;28;61732;-83
2022/10/01 11:38:18;;;;;;;;;8.00;2.25;;;;;;;;5029895;28;61927;-81
2022/10/01 11:40:49;;;;;;;;;1.33;0.33;;;;;;;;5019907;28;62179;-81
2022/10/01 11:43:23;;;;;;;;;1.00;1.00;;;;;;;;5017697;28;62137;-78
2022/10/01 11:45:51;;;;;;;;;0.67;0.67;;;;;;;;5019805;28;62074;-81
2022/10/01 11:48:23;;;;;;;;;2.67;1.67;;;;;;;;5019266;28;61954;-83
2022/10/01 11:50:52;;;;;;;;;2.33;2.00;;;;;;;;5021234;28;62036;-84
2022/10/01 11:53:21;;;;;;;;;2.67;0.00;;;;;;;;5002572;28;63692;-83
2022/10/01 11:58:53;;;;;;;;;4.67;2.00;;;;;;;;5019299;28;61853;-83
2022/10/01 12:01:41;;;;;;;;;1.33;1.00;;;;;;;;5002838;28;61950;-81
2022/10/01 12:04:24;;;;;;;;;3.00;1.00;;;;;;;;5027023;28;64233;-80
2022/10/01 12:07:02;;;;;;;;;0.67;0.67;;;;;;;;5043679;27;62011;-80
2022/10/01 12:09:46;;;;;;;;;2.67;1.33;;;;;;;;5078319;28;61774;-84
2022/10/01 12:12:16;;;;;;;;;0.33;0.33;;;;;;;;5080451;28;62316;-80
2022/10/01 12:14:46;;;;;;;;;3.00;1.00;;;;;;;;5079699;28;64268;-83
2022/10/01 12:17:22;;;;;;;;;0.67;0.00;;;;;;;;5080663;28;62029;-80
2022/10/01 12:19:49;;;;;;;;;0.00;0.00;;;;;;;;5082165;28;61862;-81
2022/10/01 12:22:32;;;;;;;;;1.00;1.00;;;;;;;;5084448;27;61802;-80
2022/10/01 12:24:58;;;;;;;;;0.00;0.00;;;;;;;;5083626;28;62804;-84
2022/10/01 12:27:43;;;;;;;;;1.00;1.00;;;;;;;;5082682;28;61742;-83
2022/10/01 12:30:11;;;;;;;;;0.00;0.00;;;;;;;;5083017;28;61794;-83
2022/10/01 12:32:45;;;;;;;;;0.67;0.00;;;;;;;;5083043;28;61744;-83
2022/10/01 12:35:11;;;;;;;;;0.00;0.00;;;;;;;;5084825;28;62406;-83
2022/10/01 12:37:56;;;;;;;;;0.00;0.00;;;;;;;;5083009;28;61932;-82
2022/10/01 12:40:26;;;;;;;;;1.00;1.00;;;;;;;;5083570;28;61738;-81
2022/10/01 12:43:12;;;;;;;;;5.00;0.00;;;;;;;;5084004;28;61929;-83
2022/10/01 12:45:48;;;;;;;;;1.00;1.00;;;;;;;;5081528;28;64131;-82
2022/10/01 12:48:15;;;;;;;;;2.00;0.00;;;;;;;;5082971;28;61893;-81
2022/10/01 12:50:43;;;;;;;;;0.00;0.00;;;;;;;;5079149;28;61904;-82
2022/10/01 12:53:08;;;;;;;;;0.33;0.33;;;;;;;;5080454;28;61781;-81
2022/10/01 12:55:49;;;;;;;;;1.00;1.00;;;;;;;;5081121;28;62050;-86
2022/10/01 12:58:17;;;;;;;;;2.33;1.00;;;;;;;;5080298;28;62157;-82
2022/10/01 13:01:09;;;;;;;;;2.00;1.00;;;;;;;;5079559;28;61995;-84
2022/10/01 13:03:36;;;;;;;;;3.00;0.00;;;;;;;;5000481;28;62016;-84
2022/10/01 13:06:07;;;;;;;;;0.00;0.00;;;;;;;;5016974;28;62060;-83
2022/10/01 13:08:35;;;;;;;;;1.00;0.00;;;;;;;;5026048;28;62012;-83
2022/10/01 13:11:02;;;;;;;;;1.67;0.00;;;;;;;;4999216;28;62103;-81
2022/10/01 13:13:32;;;;;;;;;2.00;0.67;;;;;;;;5018040;28;62058;-81
2022/10/01 13:16:03;;;;;;;;;0.67;0.33;;;;;;;;5000757;28;64475;-80
2022/10/01 13:18:47;;;;;;;;;0.00;0.00;;;;;;;;5001004;28;61897;-83
2022/10/01 13:21:43;;;;;;;;;1.00;0.00;;;;;;;;5017817;28;61952;-83
2022/10/01 13:24:22;;;;;;;;;1.67;0.67;;;;;;;;5016609;28;62164;-84
2022/10/01 13:27:00;;;;;;;;;0.67;0.00;;;;;;;;4999408;28;63625;-84
2022/10/01 13:29:39;;;;;;;;;1.67;0.67;;;;;;;;5000497;28;61953;-82
2022/10/01 13:32:24;;;;;;;;;3.33;0.00;;;;;;;;4998250;28;62071;-84
2022/10/01 13:34:50;;;;;;;;;2.00;1.00;;;;;;;;4999847;28;62001;-84
2022/10/01 13:37:18;;;;;;;;;0.00;0.00;;;;;;;;5000156;28;64935;-81
2022/10/01 13:39:47;;;;;;;;;2.33;1.67;;;;;;;;5011256;28;62716;-82
2022/10/01 13:42:30;;;;;;;;;2.67;0.00;;;;;;;;5079595;27;61984;-82
2022/10/01 13:44:57;;;;;;;;;3.67;0.00;;;;;;;;5079993;28;61786;-82
2022/10/01 13:47:23;;;;;;;;;2.33;0.67;;;;;;;;5077687;28;64460;-80
2022/10/01 13:49:52;;;;;;;;;3.00;2.00;;;;;;;;5079775;27;61983;-80
2022/10/01 13:52:19;;;;;;;;;0.33;0.00;;;;;;;;5080660;27;61903;-81
2022/10/01 13:54:46;;;;;;;;;1.00;1.00;;;;;;;;5080724;27;61912;-82
2022/10/01 13:57:30;;;;;;;;;3.00;1.33;;;;;;;;5079973;28;64085;-82
2022/10/01 13:59:59;;;;;;;;;2.00;1.00;;;;;;;;5080856;28;62053;-81
2022/10/01 14:02:28;;;;;;;;;1.00;0.00;;;;;;;;5081398;27;61774;-82
2022/10/01 14:04:54;;;;;;;;;1.00;0.33;;;;;;;;5080966;28;61993;-82
2022/10/01 14:07:25;;;;;;;;;3.00;1.00;;;;;;;;5081242;27;62727;-83
2022/10/01 14:09:52;;;;;;;;;0.00;0.00;;;;;;;;5081244;28;61906;-83
2022/10/01 14:18:01;;;;;;;;;0.00;0.00;;;;;;;;5081362;28;62409;-82
2022/10/01 14:20:31;;;;;;;;;0.33;0.33;;;;;;;;5080987;28;61769;-81
2022/10/01 14:22:59;;;;;;;;;0.00;0.00;;;;;;;;5081650;28;61957;-81
2022/10/01 14:25:33;;;;;;;;;1.00;1.00;;;;;;;;5082446;28;61714;-80
2022/10/01 14:27:59;;;;;;;;;1.00;0.00;;;;;;;;5079985;28;63792;-80
2022/10/01 14:30:29;;;;;;;;;0.00;0.00;;;;;;;;5080509;28;61802;-81
2022/10/01 14:32:54;;;;;;;;;3.00;0.00;;;;;;;;5080648;28;62005;-81
2022/10/01 14:35:25;;;;;;;;;0.00;0.00;;;;;;;;5082045;28;61916;-81
2022/10/01 14:37:55;;;;;;;;;1.67;0.00;;;;;;;;5076534;28;64984;-80
2022/10/01 14:40:22;;;;;;;;;0.00;0.00;;;;;;;;5081773;28;61751;-80
2022/10/01 14:42:58;;;;;;;;;1.67;1.00;;;;;;;;5080253;28;61921;-80
2022/10/01 14:45:23;;;;;;;;;1.67;1.00;;;;;;;;5080298;28;61713;-80
2022/10/01 14:47:58;;;;;;;;;0.00;0.00;;;;;;;;5081113;28;61916;-80
2022/10/01 14:50:23;;;;;;;;;1.00;1.00;;;;;;;;5080389;28;61722;-80
2022/10/01 14:52:53;;;;;;;;;0.00;0.00;;;;;;;;5081011;28;61739;-84
2022/10/01 14:55:20;;;;;;;;;0.67;0.67;;;;;;;;5080115;28;62169;-80
2022/10/01 14:57:48;;;;;;;;;0.00;0.00;;;;;;;;5079554;28;63905;-80
2022/10/01 15:00:21;;;;;;;;;2.33;0.67;;;;;;;;5080571;28;62098;-81
2022/10/01 15:02:51;;;;;;;;;0.00;0.00;;;;;;;;5078764;27;62071;-80
2022/10/01 15:05:33;;;;;;;;;1.33;0.00;;;;;;;;5080244;28;61753;-81
2022/10/01 15:08:08;;;;;;;;;0.00;0.00;;;;;;;;5080390;27;62006;-80